sensor_id;sensor_type;location;lat;lon;timestamp;P1;durP1;ratioP1;P2;durP2;ratioP2
16416;SDS011;8317;52.186;5.688;2022-09-23T00:01:56;4.25;;;3.47;;
16416;SDS011;8317;52.186;5.688;2022-09-23T00:04:23;5.90;;;3.35;;
16416;SDS011;8317;52.186;5.688;2022-09-23T00:06:51;3.42;;;3.13;;
16416;SDS011;8317;52.186;5.688;2022-09-23T00:09:18;4.07;;;3.00;;
16416;SDS011;8317;52.186;5.688;2022-09-23T00:11:45;4.13;;;3.05;;
16416;SDS011;8317;52.186;5.688;2022-09-23T00:14:12;3.95;;;3.10;;
16416;SDS011;8317;52.186;5.688;2022-09-23T00:16:38;3.08;;;2.88;;
16416;SDS011;8317;52.186;5.688;2022-09-23T00:19:05;5.35;;;3.33;;
16416;SDS011;8317;52.186;5.688;2022-09-23T00:21:32;6.85;;;3.58;;
16416;SDS011;8317;52.186;5.688;2022-09-23T00:24:01;3.58;;;3.22;;
16416;SDS011;8317;52.186;5.688;2022-09-23T00:26:27;4.13;;;3.17;;
16416;SDS011;8317;52.186;5.688;2022-09-23T00:28:54;4.10;;;3.53;;
16416;SDS011;8317;52.186;5.688;2022-09-23T00:31:22;4.28;;;3.22;;
16416;SDS011;8317;52.186;5.688;2022-09-23T00:33:53;3.45;;;3.00;;
16416;SDS011;8317;52.186;5.688;2022-09-23T00:36:21;3.45;;;3.03;;
16416;SDS011;8317;52.186;5.688;2022-09-23T00:38:48;6.35;;;3.15;;
16416;SDS011;8317;52.186;5.688;2022-09-23T00:41:16;5.00;;;3.30;;
16416;SDS011;8317;52.186;5.688;2022-09-23T00:43:44;6.20;;;3.25;;
16416;SDS011;8317;52.186;5.688;2022-09-23T00:46:15;4.40;;;3.10;;
16416;SDS011;8317;52.186;5.688;2022-09-23T00:48:45;5.50;;;3.65;;
16416;SDS011;8317;52.186;5.688;2022-09-23T00:51:15;4.25;;;2.90;;
16416;SDS011;8317;52.186;5.688;2022-09-23T00:53:45;6.00;;;3.15;;
16416;SDS011;8317;52.186;5.688;2022-09-23T00:56:13;4.32;;;3.65;;
16416;SDS011;8317;52.186;5.688;2022-09-23T00:58:43;4.95;;;3.35;;
16416;SDS011;8317;52.186;5.688;2022-09-23T01:01:11;6.75;;;3.47;;
16416;SDS011;8317;52.186;5.688;2022-09-23T01:03:39;3.33;;;3.03;;
16416;SDS011;8317;52.186;5.688;2022-09-23T01:06:08;6.47;;;3.40;;
16416;SDS011;8317;52.186;5.688;2022-09-23T01:08:35;6.15;;;3.63;;
16416;SDS011;8317;52.186;5.688;2022-09-23T01:11:05;3.92;;;3.58;;
16416;SDS011;8317;52.186;5.688;2022-09-23T01:13:45;4.45;;;4.03;;
16416;SDS011;8317;52.186;5.688;2022-09-23T01:16:22;4.88;;;3.55;;
16416;SDS011;8317;52.186;5.688;2022-09-23T01:18:56;6.32;;;4.18;;
16416;SDS011;8317;52.186;5.688;2022-09-23T01:21:34;6.80;;;3.53;;
16416;SDS011;8317;52.186;5.688;2022-09-23T01:24:26;4.72;;;3.30;;
16416;SDS011;8317;52.186;5.688;2022-09-23T01:27:08;5.60;;;3.28;;
16416;SDS011;8317;52.186;5.688;2022-09-23T01:32:45;6.35;;;3.30;;
16416;SDS011;8317;52.186;5.688;2022-09-23T01:35:37;6.93;;;3.88;;
16416;SDS011;8317;52.186;5.688;2022-09-23T01:38:14;4.93;;;3.60;;
16416;SDS011;8317;52.186;5.688;2022-09-23T01:40:49;5.32;;;3.38;;
16416;SDS011;8317;52.186;5.688;2022-09-23T01:43:25;5.72;;;3.55;;
16416;SDS011;8317;52.186;5.688;2022-09-23T01:46:01;6.72;;;3.85;;
16416;SDS011;8317;52.186;5.688;2022-09-23T01:48:34;4.15;;;3.17;;
16416;SDS011;8317;52.186;5.688;2022-09-23T01:51:04;4.75;;;3.85;;
16416;SDS011;8317;52.186;5.688;2022-09-23T01:53:37;5.45;;;3.47;;
16416;SDS011;8317;52.186;5.688;2022-09-23T01:56:11;3.72;;;3.38;;
16416;SDS011;8317;52.186;5.688;2022-09-23T01:58:44;3.53;;;3.22;;
16416;SDS011;8317;52.186;5.688;2022-09-23T02:01:16;6.97;;;3.60;;
16416;SDS011;8317;52.186;5.688;2022-09-23T02:03:48;5.60;;;3.45;;
16416;SDS011;8317;52.186;5.688;2022-09-23T02:06:21;6.35;;;3.35;;
16416;SDS011;8317;52.186;5.688;2022-09-23T02:08:53;5.00;;;3.50;;
16416;SDS011;8317;52.186;5.688;2022-09-23T02:11:24;5.15;;;3.47;;
16416;SDS011;8317;52.186;5.688;2022-09-23T02:13:52;4.82;;;3.50;;
16416;SDS011;8317;52.186;5.688;2022-09-23T02:16:23;5.72;;;3.35;;
16416;SDS011;8317;52.186;5.688;2022-09-23T02:18:55;5.50;;;3.38;;
16416;SDS011;8317;52.186;5.688;2022-09-23T02:21:26;3.75;;;2.88;;
16416;SDS011;8317;52.186;5.688;2022-09-23T02:23:59;5.40;;;3.53;;
16416;SDS011;8317;52.186;5.688;2022-09-23T02:26:30;4.18;;;3.20;;
16416;SDS011;8317;52.186;5.688;2022-09-23T02:29:03;3.67;;;3.30;;
16416;SDS011;8317;52.186;5.688;2022-09-23T02:31:37;3.78;;;3.33;;
16416;SDS011;8317;52.186;5.688;2022-09-23T02:34:19;5.50;;;2.97;;
16416;SDS011;8317;52.186;5.688;2022-09-23T02:37:00;7.28;;;3.47;;
16416;SDS011;8317;52.186;5.688;2022-09-23T02:39:38;4.07;;;3.10;;
16416;SDS011;8317;52.186;5.688;2022-09-23T02:42:17;5.35;;;3.17;;
16416;SDS011;8317;52.186;5.688;2022-09-23T02:44:46;6.63;;;3.53;;
16416;SDS011;8317;52.186;5.688;2022-09-23T02:47:14;6.20;;;4.10;;
16416;SDS011;8317;52.186;5.688;2022-09-23T02:49:44;5.38;;;4.75;;
16416;SDS011;8317;52.186;5.688;2022-09-23T02:52:11;6.63;;;4.13;;
16416;SDS011;8317;52.186;5.688;2022-09-23T02:54:37;5.07;;;4.10;;
16416;SDS011;8317;52.186;5.688;2022-09-23T02:57:05;6.65;;;3.85;;
16416;SDS011;8317;52.186;5.688;2022-09-23T02:59:33;6.63;;;4.05;;
16416;SDS011;8317;52.186;5.688;2022-09-23T03:02:06;8.13;;;4.38;;
16416;SDS011;8317;52.186;5.688;2022-09-23T03:04:54;8.73;;;4.55;;
16416;SDS011;8317;52.186;5.688;2022-09-23T03:07:29;9.25;;;4.80;;
16416;SDS011;8317;52.186;5.688;2022-09-23T03:10:03;5.22;;;4.45;;
16416;SDS011;8317;52.186;5.688;2022-09-23T03:12:37;4.20;;;3.80;;
16416;SDS011;8317;52.186;5.688;2022-09-23T03:15:13;6.35;;;4.32;;
16416;SDS011;8317;52.186;5.688;2022-09-23T03:17:48;7.50;;;4.72;;
16416;SDS011;8317;52.186;5.688;2022-09-23T03:20:24;6.85;;;4.18;;
16416;SDS011;8317;52.186;5.688;2022-09-23T03:22:57;5.40;;;4.15;;
16416;SDS011;8317;52.186;5.688;2022-09-23T03:25:28;9.13;;;4.60;;
16416;SDS011;8317;52.186;5.688;2022-09-23T03:27:59;9.82;;;4.70;;
16416;SDS011;8317;52.186;5.688;2022-09-23T03:30:27;9.63;;;5.03;;
16416;SDS011;8317;52.186;5.688;2022-09-23T03:32:59;5.47;;;4.47;;
16416;SDS011;8317;52.186;5.688;2022-09-23T03:35:30;7.78;;;4.40;;
16416;SDS011;8317;52.186;5.688;2022-09-23T03:38:20;5.90;;;4.57;;
16416;SDS011;8317;52.186;5.688;2022-09-23T03:40:50;6.82;;;4.43;;
16416;SDS011;8317;52.186;5.688;2022-09-23T03:43:20;5.10;;;4.47;;
16416;SDS011;8317;52.186;5.688;2022-09-23T03:45:47;8.82;;;6.75;;
16416;SDS011;8317;52.186;5.688;2022-09-23T03:48:18;6.43;;;5.45;;
16416;SDS011;8317;52.186;5.688;2022-09-23T03:50:47;7.05;;;5.38;;
16416;SDS011;8317;52.186;5.688;2022-09-23T03:53:14;7.93;;;5.63;;
16416;SDS011;8317;52.186;5.688;2022-09-23T03:55:42;8.93;;;5.60;;
16416;SDS011;8317;52.186;5.688;2022-09-23T03:58:09;7.45;;;5.25;;
16416;SDS011;8317;52.186;5.688;2022-09-23T04:00:36;10.50;;;5.97;;
16416;SDS011;8317;52.186;5.688;2022-09-23T04:03:03;5.97;;;5.10;;
16416;SDS011;8317;52.186;5.688;2022-09-23T04:05:30;6.55;;;5.32;;
16416;SDS011;8317;52.186;5.688;2022-09-23T04:07:58;7.18;;;5.30;;
16416;SDS011;8317;52.186;5.688;2022-09-23T04:10:25;7.95;;;5.97;;
16416;SDS011;8317;52.186;5.688;2022-09-23T04:12:52;9.32;;;5.90;;
16416;SDS011;8317;52.186;5.688;2022-09-23T04:15:20;9.25;;;5.60;;
16416;SDS011;8317;52.186;5.688;2022-09-23T04:17:47;8.80;;;6.03;;
16416;SDS011;8317;52.186;5.688;2022-09-23T04:20:14;7.35;;;5.93;;
16416;SDS011;8317;52.186;5.688;2022-09-23T04:22:43;8.32;;;6.10;;
16416;SDS011;8317;52.186;5.688;2022-09-23T04:25:11;8.50;;;5.63;;
16416;SDS011;8317;52.186;5.688;2022-09-23T04:27:38;10.02;;;6.78;;
16416;SDS011;8317;52.186;5.688;2022-09-23T04:30:05;13.07;;;6.93;;
16416;SDS011;8317;52.186;5.688;2022-09-23T04:32:33;8.65;;;6.47;;
16416;SDS011;8317;52.186;5.688;2022-09-23T04:35:00;7.43;;;6.63;;
16416;SDS011;8317;52.186;5.688;2022-09-23T04:37:26;6.97;;;6.05;;
16416;SDS011;8317;52.186;5.688;2022-09-23T04:39:54;9.02;;;6.95;;
16416;SDS011;8317;52.186;5.688;2022-09-23T04:42:22;9.38;;;7.15;;
16416;SDS011;8317;52.186;5.688;2022-09-23T04:44:49;8.55;;;6.38;;
16416;SDS011;8317;52.186;5.688;2022-09-23T04:47:16;12.00;;;6.90;;
16416;SDS011;8317;52.186;5.688;2022-09-23T04:49:43;9.48;;;6.57;;
16416;SDS011;8317;52.186;5.688;2022-09-23T04:52:10;9.40;;;7.38;;
16416;SDS011;8317;52.186;5.688;2022-09-23T04:54:37;9.48;;;6.30;;
16416;SDS011;8317;52.186;5.688;2022-09-23T04:57:04;10.63;;;6.63;;
16416;SDS011;8317;52.186;5.688;2022-09-23T04:59:32;11.27;;;8.20;;
16416;SDS011;8317;52.186;5.688;2022-09-23T05:01:59;12.00;;;7.18;;
16416;SDS011;8317;52.186;5.688;2022-09-23T05:04:26;7.72;;;6.40;;
16416;SDS011;8317;52.186;5.688;2022-09-23T05:06:53;8.40;;;7.30;;
16416;SDS011;8317;52.186;5.688;2022-09-23T05:09:20;9.50;;;6.72;;
16416;SDS011;8317;52.186;5.688;2022-09-23T05:11:47;10.90;;;7.75;;
16416;SDS011;8317;52.186;5.688;2022-09-23T05:14:14;9.02;;;7.35;;
16416;SDS011;8317;52.186;5.688;2022-09-23T05:16:42;12.73;;;8.70;;
16416;SDS011;8317;52.186;5.688;2022-09-23T05:19:09;11.68;;;8.45;;
16416;SDS011;8317;52.186;5.688;2022-09-23T05:21:37;11.85;;;8.68;;
16416;SDS011;8317;52.186;5.688;2022-09-23T05:24:04;11.93;;;8.57;;
16416;SDS011;8317;52.186;5.688;2022-09-23T05:26:32;10.05;;;7.90;;
16416;SDS011;8317;52.186;5.688;2022-09-23T05:28:59;12.00;;;8.57;;
16416;SDS011;8317;52.186;5.688;2022-09-23T05:31:26;9.35;;;7.30;;
16416;SDS011;8317;52.186;5.688;2022-09-23T05:33:56;10.57;;;8.18;;
16416;SDS011;8317;52.186;5.688;2022-09-23T05:36:24;12.15;;;8.48;;
16416;SDS011;8317;52.186;5.688;2022-09-23T05:38:53;12.18;;;8.57;;
16416;SDS011;8317;52.186;5.688;2022-09-23T05:41:21;11.10;;;8.70;;
16416;SDS011;8317;52.186;5.688;2022-09-23T05:43:48;14.57;;;9.05;;
16416;SDS011;8317;52.186;5.688;2022-09-23T05:46:17;13.35;;;10.18;;
16416;SDS011;8317;52.186;5.688;2022-09-23T05:48:45;17.33;;;9.25;;
16416;SDS011;8317;52.186;5.688;2022-09-23T05:51:14;11.77;;;9.05;;
16416;SDS011;8317;52.186;5.688;2022-09-23T05:53:42;13.50;;;10.52;;
16416;SDS011;8317;52.186;5.688;2022-09-23T05:56:10;14.07;;;9.07;;
16416;SDS011;8317;52.186;5.688;2022-09-23T05:58:37;12.60;;;9.80;;
16416;SDS011;8317;52.186;5.688;2022-09-23T06:01:08;14.75;;;9.68;;
16416;SDS011;8317;52.186;5.688;2022-09-23T06:03:35;14.45;;;9.88;;
16416;SDS011;8317;52.186;5.688;2022-09-23T06:06:02;13.65;;;10.23;;
16416;SDS011;8317;52.186;5.688;2022-09-23T06:08:31;14.38;;;9.65;;
16416;SDS011;8317;52.186;5.688;2022-09-23T06:11:01;12.55;;;10.10;;
16416;SDS011;8317;52.186;5.688;2022-09-23T06:13:32;11.00;;;9.18;;
16416;SDS011;8317;52.186;5.688;2022-09-23T06:16:02;12.32;;;9.55;;
16416;SDS011;8317;52.186;5.688;2022-09-23T06:18:29;14.10;;;9.93;;
16416;SDS011;8317;52.186;5.688;2022-09-23T06:20:58;16.63;;;10.82;;
16416;SDS011;8317;52.186;5.688;2022-09-23T06:23:26;17.33;;;11.35;;
16416;SDS011;8317;52.186;5.688;2022-09-23T06:25:59;15.73;;;11.00;;
16416;SDS011;8317;52.186;5.688;2022-09-23T06:28:27;15.27;;;10.68;;
16416;SDS011;8317;52.186;5.688;2022-09-23T06:30:56;15.50;;;10.82;;
16416;SDS011;8317;52.186;5.688;2022-09-23T06:33:23;13.95;;;10.13;;
16416;SDS011;8317;52.186;5.688;2022-09-23T06:35:53;13.48;;;10.30;;
16416;SDS011;8317;52.186;5.688;2022-09-23T06:38:21;12.88;;;11.10;;
16416;SDS011;8317;52.186;5.688;2022-09-23T06:40:48;17.50;;;11.55;;
16416;SDS011;8317;52.186;5.688;2022-09-23T06:43:16;18.08;;;11.20;;
16416;SDS011;8317;52.186;5.688;2022-09-23T06:45:43;13.10;;;10.10;;
16416;SDS011;8317;52.186;5.688;2022-09-23T06:48:10;14.52;;;11.15;;
16416;SDS011;8317;52.186;5.688;2022-09-23T06:50:37;18.05;;;12.38;;
16416;SDS011;8317;52.186;5.688;2022-09-23T06:53:04;14.65;;;10.88;;
16416;SDS011;8317;52.186;5.688;2022-09-23T06:55:31;12.63;;;11.32;;
16416;SDS011;8317;52.186;5.688;2022-09-23T06:57:58;16.65;;;12.05;;
16416;SDS011;8317;52.186;5.688;2022-09-23T07:00:27;18.08;;;12.27;;
16416;SDS011;8317;52.186;5.688;2022-09-23T07:02:54;17.17;;;13.73;;
16416;SDS011;8317;52.186;5.688;2022-09-23T07:05:21;16.02;;;11.68;;
16416;SDS011;8317;52.186;5.688;2022-09-23T07:07:48;15.38;;;12.00;;
16416;SDS011;8317;52.186;5.688;2022-09-23T07:10:15;15.73;;;12.00;;
16416;SDS011;8317;52.186;5.688;2022-09-23T07:12:42;17.25;;;12.65;;
16416;SDS011;8317;52.186;5.688;2022-09-23T07:15:09;21.25;;;12.63;;
16416;SDS011;8317;52.186;5.688;2022-09-23T07:17:39;16.30;;;12.40;;
16416;SDS011;8317;52.186;5.688;2022-09-23T07:20:06;17.73;;;12.70;;
16416;SDS011;8317;52.186;5.688;2022-09-23T07:22:35;17.08;;;12.55;;
16416;SDS011;8317;52.186;5.688;2022-09-23T07:25:02;17.20;;;12.77;;
16416;SDS011;8317;52.186;5.688;2022-09-23T07:27:30;15.00;;;12.10;;
16416;SDS011;8317;52.186;5.688;2022-09-23T07:29:57;17.17;;;11.80;;
16416;SDS011;8317;52.186;5.688;2022-09-23T07:32:24;14.73;;;12.23;;
16416;SDS011;8317;52.186;5.688;2022-09-23T07:34:52;21.60;;;12.88;;
16416;SDS011;8317;52.186;5.688;2022-09-23T07:37:20;16.25;;;12.07;;
16416;SDS011;8317;52.186;5.688;2022-09-23T07:39:47;15.45;;;11.57;;
16416;SDS011;8317;52.186;5.688;2022-09-23T07:42:15;13.93;;;11.35;;
16416;SDS011;8317;52.186;5.688;2022-09-23T07:44:42;16.65;;;11.95;;
16416;SDS011;8317;52.186;5.688;2022-09-23T07:47:09;14.85;;;11.05;;
16416;SDS011;8317;52.186;5.688;2022-09-23T07:49:36;15.10;;;12.00;;
16416;SDS011;8317;52.186;5.688;2022-09-23T07:52:04;15.35;;;12.10;;
16416;SDS011;8317;52.186;5.688;2022-09-23T07:54:31;15.63;;;11.73;;
16416;SDS011;8317;52.186;5.688;2022-09-23T07:56:58;15.57;;;12.07;;
16416;SDS011;8317;52.186;5.688;2022-09-23T07:59:25;14.50;;;10.63;;
16416;SDS011;8317;52.186;5.688;2022-09-23T08:01:52;15.82;;;11.45;;
16416;SDS011;8317;52.186;5.688;2022-09-23T08:04:21;12.10;;;10.27;;
16416;SDS011;8317;52.186;5.688;2022-09-23T08:06:50;14.23;;;10.27;;
16416;SDS011;8317;52.186;5.688;2022-09-23T08:09:21;14.63;;;10.95;;
16416;SDS011;8317;52.186;5.688;2022-09-23T08:11:49;14.70;;;11.25;;
16416;SDS011;8317;52.186;5.688;2022-09-23T08:14:16;16.33;;;11.45;;
16416;SDS011;8317;52.186;5.688;2022-09-23T08:16:44;15.75;;;11.52;;
16416;SDS011;8317;52.186;5.688;2022-09-23T08:19:12;14.75;;;11.68;;
16416;SDS011;8317;52.186;5.688;2022-09-23T08:21:39;14.93;;;11.07;;
16416;SDS011;8317;52.186;5.688;2022-09-23T08:24:07;15.73;;;11.13;;
16416;SDS011;8317;52.186;5.688;2022-09-23T08:26:39;14.88;;;11.73;;
16416;SDS011;8317;52.186;5.688;2022-09-23T08:29:05;15.52;;;11.52;;
16416;SDS011;8317;52.186;5.688;2022-09-23T08:31:34;14.77;;;9.80;;
16416;SDS011;8317;52.186;5.688;2022-09-23T08:34:01;15.30;;;11.00;;
16416;SDS011;8317;52.186;5.688;2022-09-23T08:36:28;14.52;;;10.88;;
16416;SDS011;8317;52.186;5.688;2022-09-23T08:38:56;14.82;;;11.02;;
16416;SDS011;8317;52.186;5.688;2022-09-23T08:41:24;12.32;;;10.40;;
16416;SDS011;8317;52.186;5.688;2022-09-23T08:44:02;14.98;;;10.77;;
16416;SDS011;8317;52.186;5.688;2022-09-23T08:46:33;17.83;;;10.35;;
16416;SDS011;8317;52.186;5.688;2022-09-23T08:49:07;13.65;;;11.07;;
16416;SDS011;8317;52.186;5.688;2022-09-23T08:51:38;12.90;;;10.75;;
16416;SDS011;8317;52.186;5.688;2022-09-23T08:54:10;12.30;;;9.98;;
16416;SDS011;8317;52.186;5.688;2022-09-23T08:56:38;11.80;;;10.52;;
16416;SDS011;8317;52.186;5.688;2022-09-23T08:59:12;13.82;;;11.40;;
16416;SDS011;8317;52.186;5.688;2022-09-23T09:01:43;11.85;;;10.65;;
16416;SDS011;8317;52.186;5.688;2022-09-23T09:04:15;11.93;;;10.48;;
16416;SDS011;8317;52.186;5.688;2022-09-23T09:06:46;11.43;;;10.23;;
16416;SDS011;8317;52.186;5.688;2022-09-23T09:09:19;12.75;;;10.15;;
16416;SDS011;8317;52.186;5.688;2022-09-23T09:11:50;13.80;;;10.75;;
16416;SDS011;8317;52.186;5.688;2022-09-23T09:14:24;12.77;;;9.52;;
16416;SDS011;8317;52.186;5.688;2022-09-23T09:16:56;13.15;;;9.85;;
16416;SDS011;8317;52.186;5.688;2022-09-23T09:22:18;13.35;;;9.23;;
16416;SDS011;8317;52.186;5.688;2022-09-23T09:24:49;10.77;;;9.02;;
16416;SDS011;8317;52.186;5.688;2022-09-23T09:27:17;14.07;;;10.02;;
16416;SDS011;8317;52.186;5.688;2022-09-23T09:29:47;11.55;;;9.02;;
16416;SDS011;8317;52.186;5.688;2022-09-23T09:32:18;15.57;;;9.75;;
16416;SDS011;8317;52.186;5.688;2022-09-23T09:34:58;11.75;;;8.85;;
16416;SDS011;8317;52.186;5.688;2022-09-23T09:37:32;12.07;;;8.90;;
16416;SDS011;8317;52.186;5.688;2022-09-23T09:40:04;10.73;;;9.68;;
16416;SDS011;8317;52.186;5.688;2022-09-23T09:42:35;12.32;;;9.98;;
16416;SDS011;8317;52.186;5.688;2022-09-23T09:45:09;20.83;;;10.02;;
16416;SDS011;8317;52.186;5.688;2022-09-23T09:47:44;11.18;;;9.07;;
16416;SDS011;8317;52.186;5.688;2022-09-23T09:50:17;14.85;;;9.40;;
16416;SDS011;8317;52.186;5.688;2022-09-23T09:53:13;15.52;;;9.52;;
16416;SDS011;8317;52.186;5.688;2022-09-23T09:55:41;11.43;;;8.48;;
16416;SDS011;8317;52.186;5.688;2022-09-23T09:58:09;11.43;;;9.55;;
16416;SDS011;8317;52.186;5.688;2022-09-23T10:00:42;15.90;;;9.32;;
16416;SDS011;8317;52.186;5.688;2022-09-23T10:03:21;10.40;;;8.38;;
16416;SDS011;8317;52.186;5.688;2022-09-23T10:05:52;13.57;;;9.38;;
16416;SDS011;8317;52.186;5.688;2022-09-23T10:08:23;10.90;;;9.60;;
16416;SDS011;8317;52.186;5.688;2022-09-23T10:10:53;10.80;;;9.40;;
16416;SDS011;8317;52.186;5.688;2022-09-23T10:13:26;13.45;;;9.98;;
16416;SDS011;8317;52.186;5.688;2022-09-23T10:15:55;10.60;;;8.68;;
16416;SDS011;8317;52.186;5.688;2022-09-23T10:18:25;10.23;;;9.15;;
16416;SDS011;8317;52.186;5.688;2022-09-23T10:20:59;9.68;;;7.68;;
16416;SDS011;8317;52.186;5.688;2022-09-23T10:23:32;15.35;;;8.25;;
16416;SDS011;8317;52.186;5.688;2022-09-23T10:26:04;9.60;;;8.25;;
16416;SDS011;8317;52.186;5.688;2022-09-23T10:28:38;12.43;;;8.48;;
16416;SDS011;8317;52.186;5.688;2022-09-23T10:31:11;9.52;;;7.68;;
16416;SDS011;8317;52.186;5.688;2022-09-23T10:33:40;12.85;;;8.63;;
16416;SDS011;8317;52.186;5.688;2022-09-23T10:36:13;13.15;;;8.23;;
16416;SDS011;8317;52.186;5.688;2022-09-23T10:38:41;11.38;;;7.88;;
16416;SDS011;8317;52.186;5.688;2022-09-23T10:41:11;8.88;;;7.97;;
16416;SDS011;8317;52.186;5.688;2022-09-23T10:44:03;10.25;;;8.23;;
16416;SDS011;8317;52.186;5.688;2022-09-23T10:47:03;12.45;;;7.78;;
16416;SDS011;8317;52.186;5.688;2022-09-23T10:49:47;13.27;;;8.75;;
16416;SDS011;8317;52.186;5.688;2022-09-23T10:52:27;13.13;;;8.07;;
16416;SDS011;8317;52.186;5.688;2022-09-23T10:55:06;12.15;;;7.93;;
16416;SDS011;8317;52.186;5.688;2022-09-23T10:57:51;10.40;;;7.90;;
16416;SDS011;8317;52.186;5.688;2022-09-23T11:00:33;9.60;;;8.43;;
16416;SDS011;8317;52.186;5.688;2022-09-23T11:03:26;10.55;;;8.23;;
16416;SDS011;8317;52.186;5.688;2022-09-23T11:06:19;9.70;;;7.88;;
16416;SDS011;8317;52.186;5.688;2022-09-23T11:08:55;14.65;;;8.73;;
16416;SDS011;8317;52.186;5.688;2022-09-23T11:11:36;9.93;;;8.93;;
16416;SDS011;8317;52.186;5.688;2022-09-23T11:14:20;12.57;;;9.07;;
16416;SDS011;8317;52.186;5.688;2022-09-23T11:17:19;10.68;;;9.15;;
16416;SDS011;8317;52.186;5.688;2022-09-23T11:23:08;10.02;;;8.63;;
16416;SDS011;8317;52.186;5.688;2022-09-23T11:25:51;11.60;;;9.73;;
16416;SDS011;8317;52.186;5.688;2022-09-23T11:28:30;14.13;;;9.40;;
16416;SDS011;8317;52.186;5.688;2022-09-23T11:31:19;12.38;;;9.85;;
16416;SDS011;8317;52.186;5.688;2022-09-23T11:34:00;14.25;;;10.57;;
16416;SDS011;8317;52.186;5.688;2022-09-23T11:36:43;9.75;;;8.85;;
16416;SDS011;8317;52.186;5.688;2022-09-23T11:39:15;10.90;;;9.75;;
16416;SDS011;8317;52.186;5.688;2022-09-23T11:41:45;11.65;;;10.15;;
16416;SDS011;8317;52.186;5.688;2022-09-23T11:44:16;12.40;;;9.68;;
16416;SDS011;8317;52.186;5.688;2022-09-23T11:46:48;11.77;;;9.35;;
16416;SDS011;8317;52.186;5.688;2022-09-23T11:49:20;12.70;;;9.25;;
16416;SDS011;8317;52.186;5.688;2022-09-23T11:52:00;13.07;;;9.80;;
16416;SDS011;8317;52.186;5.688;2022-09-23T11:54:33;10.15;;;9.10;;
16416;SDS011;8317;52.186;5.688;2022-09-23T11:57:07;14.02;;;9.32;;
16416;SDS011;8317;52.186;5.688;2022-09-23T11:59:38;12.65;;;9.52;;
16416;SDS011;8317;52.186;5.688;2022-09-23T12:02:13;11.68;;;10.20;;
16416;SDS011;8317;52.186;5.688;2022-09-23T12:04:45;12.00;;;8.60;;
16416;SDS011;8317;52.186;5.688;2022-09-23T12:07:18;12.23;;;9.57;;
16416;SDS011;8317;52.186;5.688;2022-09-23T12:09:51;17.52;;;9.02;;
16416;SDS011;8317;52.186;5.688;2022-09-23T12:12:25;11.70;;;9.60;;
16416;SDS011;8317;52.186;5.688;2022-09-23T12:14:58;12.18;;;9.18;;
16416;SDS011;8317;52.186;5.688;2022-09-23T12:17:41;15.05;;;9.30;;
16416;SDS011;8317;52.186;5.688;2022-09-23T12:20:26;14.07;;;8.82;;
16416;SDS011;8317;52.186;5.688;2022-09-23T12:23:12;13.13;;;9.05;;
16416;SDS011;8317;52.186;5.688;2022-09-23T12:25:57;11.70;;;8.75;;
16416;SDS011;8317;52.186;5.688;2022-09-23T12:28:28;11.18;;;9.18;;
16416;SDS011;8317;52.186;5.688;2022-09-23T12:31:00;12.02;;;8.95;;
16416;SDS011;8317;52.186;5.688;2022-09-23T12:33:30;10.77;;;8.75;;
16416;SDS011;8317;52.186;5.688;2022-09-23T12:36:01;11.35;;;8.95;;
16416;SDS011;8317;52.186;5.688;2022-09-23T12:38:33;13.30;;;9.40;;
16416;SDS011;8317;52.186;5.688;2022-09-23T12:41:16;10.73;;;8.77;;
16416;SDS011;8317;52.186;5.688;2022-09-23T12:43:49;10.40;;;9.05;;
16416;SDS011;8317;52.186;5.688;2022-09-23T12:46:20;15.25;;;9.43;;
16416;SDS011;8317;52.186;5.688;2022-09-23T12:49:00;11.15;;;7.95;;
16416;SDS011;8317;52.186;5.688;2022-09-23T12:51:29;14.65;;;8.60;;
16416;SDS011;8317;52.186;5.688;2022-09-23T12:57:00;14.27;;;8.45;;
16416;SDS011;8317;52.186;5.688;2022-09-23T13:02:40;11.80;;;7.80;;
16416;SDS011;8317;52.186;5.688;2022-09-23T13:05:40;10.60;;;8.35;;
16416;SDS011;8317;52.186;5.688;2022-09-23T13:08:27;12.20;;;8.25;;
16416;SDS011;8317;52.186;5.688;2022-09-23T13:10:56;9.32;;;7.45;;
16416;SDS011;8317;52.186;5.688;2022-09-23T13:13:26;10.27;;;7.32;;
16416;SDS011;8317;52.186;5.688;2022-09-23T13:16:10;10.52;;;7.90;;
16416;SDS011;8317;52.186;5.688;2022-09-23T13:24:40;9.02;;;8.02;;
16416;SDS011;8317;52.186;5.688;2022-09-23T13:27:15;9.18;;;8.23;;
16416;SDS011;8317;52.186;5.688;2022-09-23T13:29:46;13.68;;;9.50;;
16416;SDS011;8317;52.186;5.688;2022-09-23T13:32:17;12.68;;;7.85;;
16416;SDS011;8317;52.186;5.688;2022-09-23T13:34:51;12.00;;;8.02;;
16416;SDS011;8317;52.186;5.688;2022-09-23T13:37:22;12.20;;;8.25;;
16416;SDS011;8317;52.186;5.688;2022-09-23T13:39:51;8.70;;;7.68;;
16416;SDS011;8317;52.186;5.688;2022-09-23T13:42:23;12.13;;;8.10;;
16416;SDS011;8317;52.186;5.688;2022-09-23T13:44:52;12.82;;;8.65;;
16416;SDS011;8317;52.186;5.688;2022-09-23T13:47:22;16.67;;;11.13;;
16416;SDS011;8317;52.186;5.688;2022-09-23T13:49:49;10.35;;;8.57;;
16416;SDS011;8317;52.186;5.688;2022-09-23T13:52:21;13.13;;;9.15;;
16416;SDS011;8317;52.186;5.688;2022-09-23T13:54:51;14.18;;;8.48;;
16416;SDS011;8317;52.186;5.688;2022-09-23T13:57:26;12.15;;;8.57;;
16416;SDS011;8317;52.186;5.688;2022-09-23T13:59:58;13.02;;;7.35;;
16416;SDS011;8317;52.186;5.688;2022-09-23T14:02:25;11.10;;;7.07;;
16416;SDS011;8317;52.186;5.688;2022-09-23T14:04:54;10.40;;;7.05;;
16416;SDS011;8317;52.186;5.688;2022-09-23T14:07:23;10.40;;;6.72;;
16416;SDS011;8317;52.186;5.688;2022-09-23T14:09:51;10.23;;;6.35;;
16416;SDS011;8317;52.186;5.688;2022-09-23T14:12:20;8.07;;;6.50;;
16416;SDS011;8317;52.186;5.688;2022-09-23T14:14:49;13.77;;;7.00;;
16416;SDS011;8317;52.186;5.688;2022-09-23T14:17:18;11.15;;;6.60;;
16416;SDS011;8317;52.186;5.688;2022-09-23T14:19:47;14.70;;;8.63;;
16416;SDS011;8317;52.186;5.688;2022-09-23T14:22:22;11.95;;;8.45;;
16416;SDS011;8317;52.186;5.688;2022-09-23T14:24:50;15.38;;;8.32;;
16416;SDS011;8317;52.186;5.688;2022-09-23T14:27:19;11.65;;;7.78;;
16416;SDS011;8317;52.186;5.688;2022-09-23T14:29:54;13.35;;;8.05;;
16416;SDS011;8317;52.186;5.688;2022-09-23T14:32:23;9.88;;;6.95;;
16416;SDS011;8317;52.186;5.688;2022-09-23T14:35:03;11.45;;;6.43;;
16416;SDS011;8317;52.186;5.688;2022-09-23T14:37:37;7.53;;;5.90;;
16416;SDS011;8317;52.186;5.688;2022-09-23T14:40:26;8.50;;;5.57;;
16416;SDS011;8317;52.186;5.688;2022-09-23T14:42:58;9.15;;;5.75;;
16416;SDS011;8317;52.186;5.688;2022-09-23T14:45:30;10.77;;;5.63;;
16416;SDS011;8317;52.186;5.688;2022-09-23T14:47:59;8.23;;;5.30;;
16416;SDS011;8317;52.186;5.688;2022-09-23T14:50:30;9.35;;;6.65;;
16416;SDS011;8317;52.186;5.688;2022-09-23T14:53:33;6.68;;;5.00;;
16416;SDS011;8317;52.186;5.688;2022-09-23T14:56:10;8.45;;;5.40;;
16416;SDS011;8317;52.186;5.688;2022-09-23T14:58:40;9.68;;;5.25;;
16416;SDS011;8317;52.186;5.688;2022-09-23T15:04:09;8.50;;;4.60;;
16416;SDS011;8317;52.186;5.688;2022-09-23T15:06:38;10.45;;;5.72;;
16416;SDS011;8317;52.186;5.688;2022-09-23T15:09:07;6.85;;;5.18;;
16416;SDS011;8317;52.186;5.688;2022-09-23T15:11:41;6.82;;;4.57;;
16416;SDS011;8317;52.186;5.688;2022-09-23T15:14:08;6.57;;;4.82;;
16416;SDS011;8317;52.186;5.688;2022-09-23T15:16:35;5.85;;;5.13;;
16416;SDS011;8317;52.186;5.688;2022-09-23T15:19:05;10.55;;;5.70;;
16416;SDS011;8317;52.186;5.688;2022-09-23T15:21:41;8.30;;;5.57;;
16416;SDS011;8317;52.186;5.688;2022-09-23T15:27:08;9.07;;;8.18;;
16416;SDS011;8317;52.186;5.688;2022-09-23T15:29:42;8.23;;;6.28;;
16416;SDS011;8317;52.186;5.688;2022-09-23T15:32:08;12.55;;;7.07;;
16416;SDS011;8317;52.186;5.688;2022-09-23T15:34:37;8.57;;;5.85;;
16416;SDS011;8317;52.186;5.688;2022-09-23T15:37:03;7.88;;;5.70;;
16416;SDS011;8317;52.186;5.688;2022-09-23T15:39:30;7.32;;;6.28;;
16416;SDS011;8317;52.186;5.688;2022-09-23T15:41:57;10.13;;;6.68;;
16416;SDS011;8317;52.186;5.688;2022-09-23T15:44:25;8.90;;;6.90;;